Ana Sayfa
METAR-TAF:

METAR-TAF

Havaalanları :

Afyon Havalimanı

Afyon, Türkiye

Enlem: 38-45N, Boylam: 030-32E, yükseklik: 1034 m

METAR: eksik

Saat: 10:23 (07:23 UTC)

Tahmin

Rapor saat 01:40 UTC de 5 saat ve 43 dakika önce yapıldı.
Ayın 22'si saat 03 UTC'den ayın 22'si saat 12 UTC'ye kadar geçerli Tahmin
Rüzgar değişken yönden 2 kt
Görüş mesafesi: 4000 m
1700 ft yükseklikte parçalı bulutlu
3500 ft yükseklikte parçalı bulutlu
Pus
Dönüşüyor
ayın 22'si saat 03 UTC'den ayın 22'si saat 05 UTC'ye kadar
Görüş mesafesi: 1200 m
sis kütleleri
Dönüşüyor
ayın 22'si saat 06 UTC'den ayın 22'si saat 09 UTC'ye kadar
Görüş mesafesi 10 km veya daha fazla
4000 ft yükseklikte parçalı çok bulutlu

TAF: LTAH 220140Z 2203/2212 VRB02KT 4000 BR SCT017 SCT035 BECMG 2203/2205 1200 BCFG BECMG 2206/2209 9999 NSW BKN040

4.000'den fazla havaalanı için hava durumu gözlemleri ve tahminleri (METAR ve TAF raporları).

Kullanılabilir istasyonlar harita üzerinde sarı ve kırmızı noktalarla gösterilir.

İstasyonun adını görmek için fareyi noktanın üzerinde gezdirin.

Sonrasında hava gözlem ve tahminlerini görmek için tıklayın.

Haritayı değiştirmek için: yaklaştırmak için siyah artı işaretli yeşil düğmeye ve uzaklaştırmak için de eksi işaretli düğmeye hızla tıklayın; bitişik haritalar için yeşil okları kullanın.


METAR-TAF: